createdAt,value
2023-08-14T00:00:13.659Z,19.64
2023-08-14T00:03:15.271Z,19.63
2023-08-14T00:06:16.887Z,19.65
2023-08-14T00:09:18.441Z,19.66
2023-08-14T00:12:19.947Z,19.67
2023-08-14T00:15:21.868Z,19.65
2023-08-14T00:18:23.419Z,19.59
2023-08-14T00:21:25.223Z,19.57
2023-08-14T00:24:26.838Z,19.54
2023-08-14T00:27:28.412Z,19.58
2023-08-14T00:30:30.115Z,19.58
2023-08-14T00:33:32.120Z,19.58
2023-08-14T00:36:34.072Z,19.56
2023-08-14T00:39:35.716Z,19.52
2023-08-14T00:42:39.461Z,19.51
2023-08-14T00:45:46.349Z,19.49
2023-08-14T00:48:48.865Z,19.47
2023-08-14T00:51:50.488Z,19.43
2023-08-14T00:54:52.845Z,19.39
2023-08-14T00:57:55.458Z,19.40
2023-08-14T01:00:59.042Z,19.41
2023-08-14T01:04:00.699Z,19.34
2023-08-14T01:07:04.723Z,19.32
2023-08-14T01:10:08.865Z,19.28
2023-08-14T01:13:31.931Z,19.21
2023-08-14T01:16:39.385Z,19.12
2023-08-14T01:19:42.781Z,19.07
2023-08-14T01:23:05.797Z,19.06
2023-08-14T01:26:08.362Z,19.03
2023-08-14T01:29:10.155Z,19.03
2023-08-14T01:32:11.693Z,19.01
2023-08-14T01:35:13.502Z,18.97
2023-08-14T01:38:40.684Z,18.91
2023-08-14T01:42:01.051Z,18.89
2023-08-14T01:45:08.329Z,18.89
2023-08-14T01:48:12.257Z,18.86
2023-08-14T01:51:14.779Z,18.88
2023-08-14T01:54:16.383Z,18.90
2023-08-14T01:57:18.106Z,18.90
2023-08-14T02:00:20.703Z,18.93
2023-08-14T02:03:22.441Z,18.91
2023-08-14T02:06:24.086Z,18.89
2023-08-14T02:09:25.632Z,18.89
2023-08-14T02:12:27.300Z,18.87
2023-08-14T02:15:28.848Z,18.90
2023-08-14T02:18:30.547Z,18.89
2023-08-14T02:21:32.108Z,18.83
2023-08-14T02:24:33.817Z,18.82
2023-08-14T02:27:35.347Z,18.79
2023-08-14T02:30:38.462Z,18.77
2023-08-14T02:33:40.747Z,18.73
2023-08-14T02:36:42.366Z,18.75
2023-08-14T02:39:44.298Z,18.75
2023-08-14T02:42:45.822Z,18.69
2023-08-14T02:45:47.466Z,18.71
2023-08-14T02:48:49.024Z,18.71
2023-08-14T02:51:51.716Z,18.71
2023-08-14T02:54:53.280Z,18.71
2023-08-14T02:57:54.871Z,18.71
2023-08-14T03:00:56.417Z,18.71
2023-08-14T03:03:57.980Z,18.73
2023-08-14T03:06:59.575Z,18.75
2023-08-14T03:10:01.111Z,18.76
2023-08-14T03:13:02.748Z,18.77
2023-08-14T03:16:04.468Z,18.77
2023-08-14T03:19:06.043Z,18.75
2023-08-14T03:22:07.606Z,18.71
2023-08-14T03:25:09.331Z,18.76
2023-08-14T03:28:11.151Z,18.78
2023-08-14T03:31:14.179Z,18.75
2023-08-14T03:34:15.830Z,18.75
2023-08-14T03:37:18.128Z,18.72
2023-08-14T03:40:19.743Z,18.73
2023-08-14T03:43:21.282Z,18.75
2023-08-14T03:46:22.875Z,18.70
2023-08-14T03:49:24.474Z,18.66
2023-08-14T03:52:26.169Z,18.60
2023-08-14T03:55:29.179Z,18.50
2023-08-14T03:58:32.256Z,18.39
2023-08-14T04:01:33.919Z,18.26
2023-08-14T04:04:36.354Z,18.23
2023-08-14T04:07:37.906Z,18.25
2023-08-14T04:10:40.211Z,18.22
2023-08-14T04:13:41.816Z,18.16
2023-08-14T04:16:44.998Z,18.06
2023-08-14T04:19:46.859Z,18.09
2023-08-14T04:22:48.417Z,18.01
2023-08-14T04:25:49.959Z,17.99
2023-08-14T04:28:52.761Z,17.93
2023-08-14T04:31:54.590Z,17.90
2023-08-14T04:34:56.127Z,17.82
2023-08-14T04:37:57.726Z,17.79
2023-08-14T04:41:00.234Z,17.72
2023-08-14T04:44:01.979Z,17.70
2023-08-14T04:47:05.283Z,17.72
2023-08-14T04:50:07.842Z,17.70
2023-08-14T04:53:10.029Z,17.68
2023-08-14T04:56:14.453Z,17.69
2023-08-14T04:59:16.052Z,17.69
2023-08-14T05:02:18.711Z,17.73
2023-08-14T05:05:20.927Z,17.82
2023-08-14T05:08:22.741Z,17.87
2023-08-14T05:11:25.347Z,17.94
2023-08-14T05:14:27.035Z,18.10
2023-08-14T05:17:28.745Z,18.23
2023-08-14T05:20:34.513Z,18.35
2023-08-14T05:23:36.058Z,18.49
2023-08-14T05:26:37.577Z,19.19
2023-08-14T05:29:39.238Z,19.42
2023-08-14T05:32:41.212Z,19.74
2023-08-14T05:35:42.886Z,20.12
2023-08-14T05:38:46.571Z,20.35
2023-08-14T05:41:48.170Z,20.24
2023-08-14T05:44:49.702Z,20.10
2023-08-14T05:47:51.238Z,20.07
2023-08-14T05:50:55.369Z,20.21
2023-08-14T05:53:56.889Z,20.43
2023-08-14T05:56:58.398Z,20.41
2023-08-14T05:59:59.929Z,20.42
2023-08-14T06:03:01.887Z,20.50
2023-08-14T06:06:05.720Z,20.80
2023-08-14T06:09:07.840Z,20.63
2023-08-14T06:12:09.525Z,20.55
2023-08-14T06:15:12.173Z,20.79
2023-08-14T06:18:13.703Z,20.89
2023-08-14T06:21:15.240Z,21.10
2023-08-14T06:24:17.488Z,21.31
2023-08-14T06:27:19.964Z,21.50
2023-08-14T06:30:23.152Z,21.55
2023-08-14T06:33:25.258Z,21.62
2023-08-14T06:36:26.827Z,21.80
2023-08-14T06:39:29.017Z,22.05
2023-08-14T06:42:30.588Z,22.10
2023-08-14T06:45:32.349Z,22.25
2023-08-14T06:48:33.837Z,22.70
2023-08-14T06:51:35.536Z,22.97
2023-08-14T06:54:37.373Z,23.08
2023-08-14T06:57:38.893Z,23.07
2023-08-14T07:00:40.487Z,23.04
2023-08-14T07:03:42.184Z,23.24
2023-08-14T07:06:43.835Z,23.27
2023-08-14T07:09:45.515Z,23.32
2023-08-14T07:12:47.082Z,23.42
2023-08-14T07:15:49.199Z,23.57
2023-08-14T07:18:50.768Z,23.91
2023-08-14T07:21:52.336Z,24.09
2023-08-14T07:24:53.865Z,24.27
2023-08-14T07:27:55.460Z,24.47
2023-08-14T07:30:57.013Z,24.62
2023-08-14T07:33:58.610Z,24.78
2023-08-14T07:37:00.171Z,24.81
2023-08-14T07:40:01.804Z,24.88
2023-08-14T07:43:03.496Z,24.96
2023-08-14T07:46:05.119Z,24.86
2023-08-14T07:49:06.655Z,24.71
2023-08-14T07:52:08.255Z,24.52
2023-08-14T07:55:09.799Z,23.88
2023-08-14T07:58:11.397Z,23.95
2023-08-14T08:01:13.034Z,24.01
2023-08-14T08:04:26.711Z,24.13
2023-08-14T08:07:28.934Z,24.07
2023-08-14T08:10:31.174Z,23.99
2023-08-14T08:13:32.721Z,24.12
2023-08-14T08:16:37.237Z,24.12
2023-08-14T08:19:38.992Z,24.63
2023-08-14T08:22:40.652Z,24.93
2023-08-14T08:25:42.174Z,24.24
2023-08-14T08:28:43.695Z,24.01
2023-08-14T08:31:45.254Z,23.81
2023-08-14T08:34:46.853Z,24.20
2023-08-14T08:37:48.369Z,24.57
2023-08-14T08:40:50.310Z,24.88
2023-08-14T08:44:17.618Z,24.88
2023-08-14T08:47:24.145Z,24.74
2023-08-14T08:50:27.059Z,25.05
2023-08-14T08:53:29.473Z,25.70
2023-08-14T08:56:31.181Z,26.03
2023-08-14T08:59:34.117Z,26.33
2023-08-14T09:02:36.189Z,26.80
2023-08-14T09:05:37.996Z,27.07
2023-08-14T09:08:39.581Z,27.45
2023-08-14T09:11:41.464Z,27.70
2023-08-14T09:14:46.166Z,27.75
2023-08-14T09:17:47.754Z,27.80
2023-08-14T09:20:49.323Z,27.93
2023-08-14T09:23:50.908Z,27.91
2023-08-14T09:26:53.372Z,27.78
2023-08-14T09:29:55.256Z,28.16
2023-08-14T09:32:57.181Z,28.74
2023-08-14T09:35:59.228Z,28.33
2023-08-14T09:39:01.331Z,28.07
2023-08-14T09:42:02.963Z,28.44
2023-08-14T09:45:04.869Z,28.11
2023-08-14T09:48:06.925Z,28.14
2023-08-14T09:51:16.482Z,27.72
2023-08-14T09:54:18.218Z,27.44
2023-08-14T09:57:27.510Z,28.15
2023-08-14T10:00:33.082Z,28.59
2023-08-14T10:03:39.945Z,28.55
2023-08-14T10:06:41.649Z,28.48
2023-08-14T10:09:46.823Z,28.41
2023-08-14T10:12:55.057Z,27.97
2023-08-14T10:15:59.186Z,27.36
2023-08-14T10:19:04.366Z,27.77
2023-08-14T10:22:07.579Z,28.11
2023-08-14T10:25:09.927Z,28.02
2023-08-14T10:28:11.483Z,27.79
2023-08-14T10:31:13.772Z,27.82
2023-08-14T10:34:17.455Z,28.18
2023-08-14T10:37:30.239Z,28.34
2023-08-14T10:40:31.802Z,28.42
2023-08-14T10:43:33.383Z,28.86
2023-08-14T10:46:41.763Z,28.58
2023-08-14T10:49:49.678Z,28.60
2023-08-14T10:52:56.447Z,28.99
2023-08-14T10:55:59.029Z,29.72
2023-08-14T10:59:00.564Z,29.84
2023-08-14T11:02:10.933Z,29.65
2023-08-14T11:05:14.688Z,29.56
2023-08-14T11:08:17.503Z,29.82
2023-08-14T11:11:19.051Z,29.59
2023-08-14T11:14:20.699Z,29.54
2023-08-14T11:17:24.677Z,29.74
2023-08-14T11:20:31.044Z,29.77
2023-08-14T11:23:34.407Z,30.08
2023-08-14T11:26:35.873Z,30.81
2023-08-14T11:29:51.683Z,31.63
2023-08-14T11:32:55.362Z,31.87
2023-08-14T11:36:03.980Z,31.91
2023-08-14T11:39:12.919Z,31.83
2023-08-14T11:42:14.650Z,32.09
2023-08-14T11:45:16.313Z,32.56
2023-08-14T11:48:18.032Z,32.66
2023-08-14T11:51:20.881Z,32.13
2023-08-14T11:54:23.165Z,34.85
2023-08-14T11:57:31.147Z,38.66
2023-08-14T12:00:34.368Z,37.47
2023-08-14T12:03:36.267Z,35.18
2023-08-14T12:06:37.924Z,36.19
2023-08-14T12:09:40.130Z,36.42
2023-08-14T12:12:51.421Z,37.88
2023-08-14T12:15:56.908Z,38.00
2023-08-14T12:18:58.596Z,40.41
2023-08-14T12:22:01.384Z,38.69
2023-08-14T12:25:05.832Z,36.11
2023-08-14T12:28:07.362Z,34.77
2023-08-14T12:31:08.968Z,33.91
2023-08-14T12:34:10.627Z,33.87
2023-08-14T12:37:15.234Z,33.37
2023-08-14T12:40:16.826Z,33.40
2023-08-14T12:43:21.302Z,33.09
2023-08-14T12:46:26.937Z,33.41
2023-08-14T12:49:28.722Z,34.44
2023-08-14T12:52:30.786Z,33.64
2023-08-14T12:55:32.627Z,32.21
2023-08-14T12:58:34.202Z,31.08
2023-08-14T13:01:36.194Z,29.68
2023-08-14T13:07:44.372Z,28.08
2023-08-14T13:10:45.878Z,27.78
2023-08-14T13:13:49.435Z,26.45
2023-08-14T13:16:51.068Z,25.96
2023-08-14T13:19:53.626Z,25.78
2023-08-14T13:22:55.693Z,25.69
2023-08-14T13:25:57.253Z,26.24
2023-08-14T13:28:58.796Z,27.29
2023-08-14T13:32:00.362Z,28.35
2023-08-14T13:35:01.968Z,29.23
2023-08-14T13:38:03.545Z,31.24
2023-08-14T13:41:05.210Z,32.18
2023-08-14T13:44:06.900Z,31.85
2023-08-14T13:47:08.641Z,32.50
2023-08-14T13:50:12.126Z,33.89
2023-08-14T13:53:18.295Z,35.31
2023-08-14T13:56:19.896Z,37.36
2023-08-14T13:59:21.431Z,39.61
2023-08-14T14:02:22.958Z,37.59
2023-08-14T14:05:24.647Z,36.72
2023-08-14T14:08:26.250Z,35.51
2023-08-14T14:11:27.790Z,34.88
2023-08-14T14:14:29.332Z,37.74
2023-08-14T14:17:30.835Z,42.72
2023-08-14T14:20:33.229Z,44.27
2023-08-14T14:23:34.792Z,44.51
2023-08-14T14:26:36.333Z,40.86
2023-08-14T14:29:37.978Z,37.71
2023-08-14T14:32:39.532Z,37.78
2023-08-14T14:35:41.124Z,39.19
2023-08-14T14:38:42.622Z,37.59
2023-08-14T14:41:44.491Z,35.65
2023-08-14T14:44:47.862Z,34.99
2023-08-14T14:47:49.439Z,35.66
2023-08-14T14:50:55.583Z,37.67
2023-08-14T14:53:57.165Z,36.29
2023-08-14T14:56:58.676Z,39.88
2023-08-14T15:00:00.242Z,42.74
2023-08-14T15:03:01.844Z,43.97
2023-08-14T15:06:05.208Z,41.13
2023-08-14T15:09:07.145Z,38.82
2023-08-14T15:12:08.775Z,37.41
2023-08-14T15:15:10.485Z,35.83
2023-08-14T15:18:12.195Z,34.42
